ASN logo
Last updated: 6 December 2021
Statuts:Préliminaire
Date:vendredi 27 juillet 2018
Heure:04:53
Type/Sous-type:Silhouette image of generic B763 model; specific model in this crash may look slightly different
Boeing 767-38EER
Compagnie:Atlas Air
Immatriculation: N641GT
Numéro de série: 25132/417
Année de Fabrication: 1992-02-10 (26 years 6 months)
Moteurs: 2 General Electric CF6-80C2B6F
Equipage:victimes: 0 / à bord:
Passagers:victimes: 0 / à bord:
Total:victimes: 0 / à bord:
Dégats de l'appareil: Substantiels
Conséquences: Repaired
Lieu de l'accident:Portsmouth International Airport at Pease, NH (PSM) (   Etats-Unis d'Amérique)
Phase de vol: A l'atterrissage (LDG)
Nature:Charter International
Aéroport de départ:Frankfurt-Hahn Airport (HHN/EDFH), Allemagne
Aéroport de destination:Portsmouth International Airport at Pease, NH (PSM/KPSM), Etats-Unis d'Amérique
Numéro de vol:5Y8601
Détails:
Atlas Air flight 8601, a Boeing 767-300, suffered a hard landing accident at Portsmouth International Airport at Pease, New Hampshire, USA.
The aircraft was flying U.S. troops home from deployment in the Middle East. An intermediate stop was made at Frankfurt-Hahn Airport in Germany, where it departed at 01:14 UTC. The flight made a hard landing on runway 34 at Portsmouth Airport at 08:53 UTC (04:53 local time).
The hard landing resulted in the fuselage skin being creased.


METAR Weather report:
07:56 UTC / 03:56 local time:
KPSM 270756Z 00000KT 10SM FEW060 FEW250 20/19 A2991 RMK AO2A SLP130 T02030189=

08:56 UTC / 04:56 local time:
KPSM 270856Z 00000KT 10SM FEW070 FEW250 19/19 A2992 RMK AO2A SLP134 T01920189 50004=


Photos

Add your photo of this accident or aircraft

Video, social media

Plan
Ce plan montre l'aéroport de départ ainsi que la supposée destination du vol. La ligne fixe reliant les deux aéroports n'est pas le plan de vol exact.
La distance entre Frankfurt-Hahn Airport et Portsmouth International Airport at Pease, NH est de 5707 km (3567 miles).
Accident location: Approximate; accuracy within a few kilometers.

Les informations ci-dessus ne représentent pas l'opinion de la 'Flight Safety Foundation' ou de 'Aviation Safety Network' sur les causes de l'accident. Ces informations prélimimaires sont basées sur les faits tel qu'ils sont connus à ce jour.
languages: languages

Share